sensor_id;sensor_type;location;lat;lon;timestamp;temperature;humidity
19152;DHT22;9708;53.114;9.388;2022-11-25T00:02:04;3.70;99.90
19152;DHT22;9708;53.114;9.388;2022-11-25T00:04:31;4.00;99.90
19152;DHT22;9708;53.114;9.388;2022-11-25T00:07:01;4.00;99.90
19152;DHT22;9708;53.114;9.388;2022-11-25T00:09:28;4.30;99.90
19152;DHT22;9708;53.114;9.388;2022-11-25T00:11:54;4.40;99.90
19152;DHT22;9708;53.114;9.388;2022-11-25T00:14:22;4.30;99.90
19152;DHT22;9708;53.114;9.388;2022-11-25T00:16:49;4.00;99.90
19152;DHT22;9708;53.114;9.388;2022-11-25T00:19:16;4.00;99.90
19152;DHT22;9708;53.114;9.388;2022-11-25T00:21:43;4.20;99.90
19152;DHT22;9708;53.114;9.388;2022-11-25T00:24:13;4.40;99.90
19152;DHT22;9708;53.114;9.388;2022-11-25T00:26:40;4.40;99.90
19152;DHT22;9708;53.114;9.388;2022-11-25T00:29:09;4.50;99.90
19152;DHT22;9708;53.114;9.388;2022-11-25T00:31:39;4.60;99.90
19152;DHT22;9708;53.114;9.388;2022-11-25T00:34:06;4.50;99.90
19152;DHT22;9708;53.114;9.388;2022-11-25T00:36:34;4.30;99.90
19152;DHT22;9708;53.114;9.388;2022-11-25T00:39:04;4.20;99.90
19152;DHT22;9708;53.114;9.388;2022-11-25T00:41:32;4.00;99.90
19152;DHT22;9708;53.114;9.388;2022-11-25T00:44:17;4.30;99.90
19152;DHT22;9708;53.114;9.388;2022-11-25T00:47:07;4.40;99.90
19152;DHT22;9708;53.114;9.388;2022-11-25T00:49:34;4.30;99.90
19152;DHT22;9708;53.114;9.388;2022-11-25T00:52:02;4.40;99.90
19152;DHT22;9708;53.114;9.388;2022-11-25T00:54:29;4.40;99.90
19152;DHT22;9708;53.114;9.388;2022-11-25T00:56:56;4.00;99.90
19152;DHT22;9708;53.114;9.388;2022-11-25T00:59:23;4.00;99.90
19152;DHT22;9708;53.114;9.388;2022-11-25T01:01:50;3.80;99.90
19152;DHT22;9708;53.114;9.388;2022-11-25T01:04:18;3.70;99.90
19152;DHT22;9708;53.114;9.388;2022-11-25T01:06:45;3.70;99.90
19152;DHT22;9708;53.114;9.388;2022-11-25T01:09:12;3.80;99.90
19152;DHT22;9708;53.114;9.388;2022-11-25T01:11:39;3.60;99.90
19152;DHT22;9708;53.114;9.388;2022-11-25T01:14:06;3.40;99.90
19152;DHT22;9708;53.114;9.388;2022-11-25T01:16:33;3.30;99.90
19152;DHT22;9708;53.114;9.388;2022-11-25T01:19:00;3.20;99.90
19152;DHT22;9708;53.114;9.388;2022-11-25T01:21:30;3.30;99.90
19152;DHT22;9708;53.114;9.388;2022-11-25T01:23:58;3.20;99.90
19152;DHT22;9708;53.114;9.388;2022-11-25T01:26:26;3.20;99.90
19152;DHT22;9708;53.114;9.388;2022-11-25T01:28:56;3.20;99.90
19152;DHT22;9708;53.114;9.388;2022-11-25T01:31:24;3.20;99.90
19152;DHT22;9708;53.114;9.388;2022-11-25T01:33:53;3.10;99.90
19152;DHT22;9708;53.114;9.388;2022-11-25T01:36:21;3.00;99.90
19152;DHT22;9708;53.114;9.388;2022-11-25T01:38:52;3.00;99.90
19152;DHT22;9708;53.114;9.388;2022-11-25T01:41:20;2.90;99.90
19152;DHT22;9708;53.114;9.388;2022-11-25T01:44:08;2.80;99.90
19152;DHT22;9708;53.114;9.388;2022-11-25T01:46:46;2.80;99.90
19152;DHT22;9708;53.114;9.388;2022-11-25T01:49:16;2.80;99.90
19152;DHT22;9708;53.114;9.388;2022-11-25T01:51:47;2.90;99.90
19152;DHT22;9708;53.114;9.388;2022-11-25T01:54:21;2.80;99.90
19152;DHT22;9708;53.114;9.388;2022-11-25T01:56:53;2.80;99.90
19152;DHT22;9708;53.114;9.388;2022-11-25T01:59:22;2.90;99.90
19152;DHT22;9708;53.114;9.388;2022-11-25T02:01:49;2.80;99.90
19152;DHT22;9708;53.114;9.388;2022-11-25T02:04:18;2.80;99.90
19152;DHT22;9708;53.114;9.388;2022-11-25T02:06:49;2.80;99.90
19152;DHT22;9708;53.114;9.388;2022-11-25T02:09:18;3.00;99.90
19152;DHT22;9708;53.114;9.388;2022-11-25T02:11:47;2.90;99.90
19152;DHT22;9708;53.114;9.388;2022-11-25T02:14:15;2.90;99.90
19152;DHT22;9708;53.114;9.388;2022-11-25T02:16:43;3.00;99.90
19152;DHT22;9708;53.114;9.388;2022-11-25T02:19:16;3.40;99.90
19152;DHT22;9708;53.114;9.388;2022-11-25T02:21:49;3.30;99.90
19152;DHT22;9708;53.114;9.388;2022-11-25T02:24:23;3.40;99.90
19152;DHT22;9708;53.114;9.388;2022-11-25T02:26:53;3.40;99.90
19152;DHT22;9708;53.114;9.388;2022-11-25T02:29:20;3.80;99.90
19152;DHT22;9708;53.114;9.388;2022-11-25T02:31:48;3.80;99.90
19152;DHT22;9708;53.114;9.388;2022-11-25T02:34:14;3.70;99.90
19152;DHT22;9708;53.114;9.388;2022-11-25T02:36:41;3.90;99.90
19152;DHT22;9708;53.114;9.388;2022-11-25T02:39:08;4.00;99.90
19152;DHT22;9708;53.114;9.388;2022-11-25T02:41:37;4.10;99.90
19152;DHT22;9708;53.114;9.388;2022-11-25T02:44:07;4.20;99.90
19152;DHT22;9708;53.114;9.388;2022-11-25T02:46:34;4.30;99.90
19152;DHT22;9708;53.114;9.388;2022-11-25T02:49:02;4.40;99.90
19152;DHT22;9708;53.114;9.388;2022-11-25T02:51:30;4.30;99.90
19152;DHT22;9708;53.114;9.388;2022-11-25T02:53:57;4.30;99.90
19152;DHT22;9708;53.114;9.388;2022-11-25T02:56:27;4.30;99.90
19152;DHT22;9708;53.114;9.388;2022-11-25T02:58:55;4.40;99.90
19152;DHT22;9708;53.114;9.388;2022-11-25T03:01:23;4.50;99.90
19152;DHT22;9708;53.114;9.388;2022-11-25T03:03:49;4.40;99.90
19152;DHT22;9708;53.114;9.388;2022-11-25T03:06:16;4.40;99.90
19152;DHT22;9708;53.114;9.388;2022-11-25T03:08:43;4.50;99.90
19152;DHT22;9708;53.114;9.388;2022-11-25T03:11:10;4.50;99.90
19152;DHT22;9708;53.114;9.388;2022-11-25T03:13:37;4.50;99.90
19152;DHT22;9708;53.114;9.388;2022-11-25T03:16:04;4.50;99.90
19152;DHT22;9708;53.114;9.388;2022-11-25T03:18:32;4.50;99.90
19152;DHT22;9708;53.114;9.388;2022-11-25T03:20:59;4.50;99.90
19152;DHT22;9708;53.114;9.388;2022-11-25T03:23:26;4.50;99.90
19152;DHT22;9708;53.114;9.388;2022-11-25T03:25:53;4.40;99.90
19152;DHT22;9708;53.114;9.388;2022-11-25T03:28:20;4.50;99.90
19152;DHT22;9708;53.114;9.388;2022-11-25T03:30:46;4.60;99.90
19152;DHT22;9708;53.114;9.388;2022-11-25T03:33:13;4.60;99.90
19152;DHT22;9708;53.114;9.388;2022-11-25T03:35:41;4.60;99.90
19152;DHT22;9708;53.114;9.388;2022-11-25T03:38:08;4.70;99.90
19152;DHT22;9708;53.114;9.388;2022-11-25T03:40:35;4.80;99.90
19152;DHT22;9708;53.114;9.388;2022-11-25T03:43:02;4.80;99.90
19152;DHT22;9708;53.114;9.388;2022-11-25T03:45:29;4.70;99.90
19152;DHT22;9708;53.114;9.388;2022-11-25T03:47:56;4.80;99.90
19152;DHT22;9708;53.114;9.388;2022-11-25T03:50:23;4.90;99.90
19152;DHT22;9708;53.114;9.388;2022-11-25T03:52:51;4.70;99.90
19152;DHT22;9708;53.114;9.388;2022-11-25T03:55:17;4.70;99.90
19152;DHT22;9708;53.114;9.388;2022-11-25T03:57:44;4.60;99.90
19152;DHT22;9708;53.114;9.388;2022-11-25T04:00:13;4.80;99.90
19152;DHT22;9708;53.114;9.388;2022-11-25T04:02:40;4.70;99.90
19152;DHT22;9708;53.114;9.388;2022-11-25T04:05:07;4.80;99.90
19152;DHT22;9708;53.114;9.388;2022-11-25T04:07:34;4.70;99.90
19152;DHT22;9708;53.114;9.388;2022-11-25T04:10:03;4.70;99.90
19152;DHT22;9708;53.114;9.388;2022-11-25T04:12:29;4.70;99.90
19152;DHT22;9708;53.114;9.388;2022-11-25T04:15:15;4.60;99.90
19152;DHT22;9708;53.114;9.388;2022-11-25T04:17:42;4.70;99.90
19152;DHT22;9708;53.114;9.388;2022-11-25T04:20:11;4.70;99.90
19152;DHT22;9708;53.114;9.388;2022-11-25T04:22:38;4.70;99.90
19152;DHT22;9708;53.114;9.388;2022-11-25T04:25:07;4.70;99.90
19152;DHT22;9708;53.114;9.388;2022-11-25T04:27:34;4.70;99.90
19152;DHT22;9708;53.114;9.388;2022-11-25T04:30:01;4.70;99.90
19152;DHT22;9708;53.114;9.388;2022-11-25T04:32:28;4.70;99.90
19152;DHT22;9708;53.114;9.388;2022-11-25T04:34:55;4.70;99.90
19152;DHT22;9708;53.114;9.388;2022-11-25T04:37:21;4.70;99.90
19152;DHT22;9708;53.114;9.388;2022-11-25T04:39:48;4.70;99.90
19152;DHT22;9708;53.114;9.388;2022-11-25T04:42:17;4.80;99.90
19152;DHT22;9708;53.114;9.388;2022-11-25T04:45:04;4.70;99.90
19152;DHT22;9708;53.114;9.388;2022-11-25T04:47:31;4.70;99.90
19152;DHT22;9708;53.114;9.388;2022-11-25T04:49:58;4.90;99.90
19152;DHT22;9708;53.114;9.388;2022-11-25T04:52:25;4.80;99.90
19152;DHT22;9708;53.114;9.388;2022-11-25T04:54:52;4.90;99.90
19152;DHT22;9708;53.114;9.388;2022-11-25T04:57:21;5.00;99.90
19152;DHT22;9708;53.114;9.388;2022-11-25T04:59:48;4.90;99.90
19152;DHT22;9708;53.114;9.388;2022-11-25T05:02:14;4.90;99.90
19152;DHT22;9708;53.114;9.388;2022-11-25T05:04:43;5.00;99.90
19152;DHT22;9708;53.114;9.388;2022-11-25T05:07:11;4.90;99.90
19152;DHT22;9708;53.114;9.388;2022-11-25T05:09:38;5.00;99.90
19152;DHT22;9708;53.114;9.388;2022-11-25T05:12:06;5.00;99.90
19152;DHT22;9708;53.114;9.388;2022-11-25T05:14:35;5.10;99.90
19152;DHT22;9708;53.114;9.388;2022-11-25T05:17:01;4.90;99.90
19152;DHT22;9708;53.114;9.388;2022-11-25T05:19:28;5.00;99.90
19152;DHT22;9708;53.114;9.388;2022-11-25T05:21:55;4.90;99.90
19152;DHT22;9708;53.114;9.388;2022-11-25T05:24:23;5.00;99.90
19152;DHT22;9708;53.114;9.388;2022-11-25T05:26:49;5.00;99.90
19152;DHT22;9708;53.114;9.388;2022-11-25T05:29:16;4.90;99.90
19152;DHT22;9708;53.114;9.388;2022-11-25T05:31:44;4.90;99.90
19152;DHT22;9708;53.114;9.388;2022-11-25T05:34:11;4.90;99.90
19152;DHT22;9708;53.114;9.388;2022-11-25T05:36:38;5.00;99.90
19152;DHT22;9708;53.114;9.388;2022-11-25T05:39:05;5.20;99.90
19152;DHT22;9708;53.114;9.388;2022-11-25T05:41:31;5.10;99.90
19152;DHT22;9708;53.114;9.388;2022-11-25T05:43:58;5.00;99.90
19152;DHT22;9708;53.114;9.388;2022-11-25T05:46:26;5.00;99.90
19152;DHT22;9708;53.114;9.388;2022-11-25T05:48:54;5.10;99.90
19152;DHT22;9708;53.114;9.388;2022-11-25T05:51:22;5.10;99.90
19152;DHT22;9708;53.114;9.388;2022-11-25T05:53:49;5.30;99.90
19152;DHT22;9708;53.114;9.388;2022-11-25T05:56:16;5.20;99.90
19152;DHT22;9708;53.114;9.388;2022-11-25T05:58:43;5.30;99.90
19152;DHT22;9708;53.114;9.388;2022-11-25T06:01:11;5.20;99.90
19152;DHT22;9708;53.114;9.388;2022-11-25T06:03:39;5.20;99.90
19152;DHT22;9708;53.114;9.388;2022-11-25T06:06:08;5.20;99.90
19152;DHT22;9708;53.114;9.388;2022-11-25T06:08:36;5.20;99.90
19152;DHT22;9708;53.114;9.388;2022-11-25T06:11:04;5.20;99.90
19152;DHT22;9708;53.114;9.388;2022-11-25T06:13:31;5.30;99.90
19152;DHT22;9708;53.114;9.388;2022-11-25T06:15:58;5.40;99.90
19152;DHT22;9708;53.114;9.388;2022-11-25T06:18:25;5.50;99.90
19152;DHT22;9708;53.114;9.388;2022-11-25T06:20:55;5.50;99.90
19152;DHT22;9708;53.114;9.388;2022-11-25T06:23:24;5.50;99.90
19152;DHT22;9708;53.114;9.388;2022-11-25T06:25:51;5.40;99.90
19152;DHT22;9708;53.114;9.388;2022-11-25T06:28:18;5.60;99.90
19152;DHT22;9708;53.114;9.388;2022-11-25T06:30:45;5.50;99.90
19152;DHT22;9708;53.114;9.388;2022-11-25T06:33:12;5.70;99.90
19152;DHT22;9708;53.114;9.388;2022-11-25T06:35:39;5.60;99.90
19152;DHT22;9708;53.114;9.388;2022-11-25T06:38:05;5.50;99.90
19152;DHT22;9708;53.114;9.388;2022-11-25T06:40:33;5.50;99.90
19152;DHT22;9708;53.114;9.388;2022-11-25T06:43:00;5.60;99.90
19152;DHT22;9708;53.114;9.388;2022-11-25T06:45:29;5.60;99.90
19152;DHT22;9708;53.114;9.388;2022-11-25T06:47:56;5.60;99.90
19152;DHT22;9708;53.114;9.388;2022-11-25T06:50:22;5.60;99.90
19152;DHT22;9708;53.114;9.388;2022-11-25T06:52:49;5.50;99.90
19152;DHT22;9708;53.114;9.388;2022-11-25T06:55:16;5.60;99.90
19152;DHT22;9708;53.114;9.388;2022-11-25T06:57:44;5.70;99.90
19152;DHT22;9708;53.114;9.388;2022-11-25T07:00:12;5.60;99.90
19152;DHT22;9708;53.114;9.388;2022-11-25T07:02:38;5.60;99.90
19152;DHT22;9708;53.114;9.388;2022-11-25T07:05:06;5.60;99.90
19152;DHT22;9708;53.114;9.388;2022-11-25T07:07:32;5.70;99.90
19152;DHT22;9708;53.114;9.388;2022-11-25T07:09:59;5.70;99.90
19152;DHT22;9708;53.114;9.388;2022-11-25T07:12:26;5.70;99.90
19152;DHT22;9708;53.114;9.388;2022-11-25T07:14:54;5.80;99.90
19152;DHT22;9708;53.114;9.388;2022-11-25T07:17:21;5.80;99.90
19152;DHT22;9708;53.114;9.388;2022-11-25T07:19:48;5.80;99.90
19152;DHT22;9708;53.114;9.388;2022-11-25T07:22:15;5.70;99.90
19152;DHT22;9708;53.114;9.388;2022-11-25T07:24:41;5.80;99.90
19152;DHT22;9708;53.114;9.388;2022-11-25T07:27:08;5.80;99.90
19152;DHT22;9708;53.114;9.388;2022-11-25T07:29:35;5.80;99.90
19152;DHT22;9708;53.114;9.388;2022-11-25T07:32:03;5.70;99.90
19152;DHT22;9708;53.114;9.388;2022-11-25T07:34:30;5.80;99.90
19152;DHT22;9708;53.114;9.388;2022-11-25T07:36:57;5.80;99.90
19152;DHT22;9708;53.114;9.388;2022-11-25T07:39:24;5.80;99.90
19152;DHT22;9708;53.114;9.388;2022-11-25T07:41:51;5.90;99.90
19152;DHT22;9708;53.114;9.388;2022-11-25T07:44:19;5.90;99.90
19152;DHT22;9708;53.114;9.388;2022-11-25T07:46:47;5.90;99.90
19152;DHT22;9708;53.114;9.388;2022-11-25T07:49:17;5.90;99.90
19152;DHT22;9708;53.114;9.388;2022-11-25T07:51:48;5.90;99.90
19152;DHT22;9708;53.114;9.388;2022-11-25T07:54:15;6.00;99.90
19152;DHT22;9708;53.114;9.388;2022-11-25T07:56:42;6.00;99.90
19152;DHT22;9708;53.114;9.388;2022-11-25T07:59:12;6.10;99.90
19152;DHT22;9708;53.114;9.388;2022-11-25T08:01:39;6.00;99.90
19152;DHT22;9708;53.114;9.388;2022-11-25T08:04:06;6.10;99.90
19152;DHT22;9708;53.114;9.388;2022-11-25T08:06:37;6.10;99.90
19152;DHT22;9708;53.114;9.388;2022-11-25T08:09:06;6.10;99.90
19152;DHT22;9708;53.114;9.388;2022-11-25T08:11:33;6.10;99.90
19152;DHT22;9708;53.114;9.388;2022-11-25T08:14:00;6.20;99.90
19152;DHT22;9708;53.114;9.388;2022-11-25T08:16:28;6.30;99.90
19152;DHT22;9708;53.114;9.388;2022-11-25T08:18:56;6.20;99.90
19152;DHT22;9708;53.114;9.388;2022-11-25T08:21:23;6.20;99.90
19152;DHT22;9708;53.114;9.388;2022-11-25T08:23:52;6.10;99.90
19152;DHT22;9708;53.114;9.388;2022-11-25T08:26:20;6.20;99.90
19152;DHT22;9708;53.114;9.388;2022-11-25T08:28:47;6.10;99.90
19152;DHT22;9708;53.114;9.388;2022-11-25T08:31:16;6.20;99.90
19152;DHT22;9708;53.114;9.388;2022-11-25T08:33:43;6.20;99.90
19152;DHT22;9708;53.114;9.388;2022-11-25T08:36:10;6.30;99.90
19152;DHT22;9708;53.114;9.388;2022-11-25T08:38:38;6.30;99.90
19152;DHT22;9708;53.114;9.388;2022-11-25T08:41:10;6.50;99.90
19152;DHT22;9708;53.114;9.388;2022-11-25T08:43:37;6.50;99.90
19152;DHT22;9708;53.114;9.388;2022-11-25T08:46:08;6.50;99.90
19152;DHT22;9708;53.114;9.388;2022-11-25T08:48:35;6.40;99.90
19152;DHT22;9708;53.114;9.388;2022-11-25T08:51:07;6.40;99.90
19152;DHT22;9708;53.114;9.388;2022-11-25T08:53:34;6.40;99.90
19152;DHT22;9708;53.114;9.388;2022-11-25T08:56:01;6.60;99.90
19152;DHT22;9708;53.114;9.388;2022-11-25T08:58:29;6.60;99.90
19152;DHT22;9708;53.114;9.388;2022-11-25T09:00:56;6.60;99.90
19152;DHT22;9708;53.114;9.388;2022-11-25T09:03:22;6.70;99.90
19152;DHT22;9708;53.114;9.388;2022-11-25T09:05:49;6.80;99.90
19152;DHT22;9708;53.114;9.388;2022-11-25T09:08:17;6.80;99.90
19152;DHT22;9708;53.114;9.388;2022-11-25T09:10:44;6.80;99.90
19152;DHT22;9708;53.114;9.388;2022-11-25T09:13:11;6.80;99.90
19152;DHT22;9708;53.114;9.388;2022-11-25T09:15:39;6.80;99.90
19152;DHT22;9708;53.114;9.388;2022-11-25T09:18:08;6.90;99.90
19152;DHT22;9708;53.114;9.388;2022-11-25T09:20:38;6.90;99.90
19152;DHT22;9708;53.114;9.388;2022-11-25T09:23:05;6.90;99.90
19152;DHT22;9708;53.114;9.388;2022-11-25T09:25:33;7.00;99.90
19152;DHT22;9708;53.114;9.388;2022-11-25T09:28:01;7.10;99.90
19152;DHT22;9708;53.114;9.388;2022-11-25T09:30:28;7.10;99.90
19152;DHT22;9708;53.114;9.388;2022-11-25T09:32:56;7.40;99.90
19152;DHT22;9708;53.114;9.388;2022-11-25T09:35:24;7.40;99.90
19152;DHT22;9708;53.114;9.388;2022-11-25T09:37:51;7.20;99.90
19152;DHT22;9708;53.114;9.388;2022-11-25T09:40:19;7.20;99.90
19152;DHT22;9708;53.114;9.388;2022-11-25T09:42:50;7.20;99.90
19152;DHT22;9708;53.114;9.388;2022-11-25T09:45:43;7.30;99.90
19152;DHT22;9708;53.114;9.388;2022-11-25T09:48:41;7.40;99.90
19152;DHT22;9708;53.114;9.388;2022-11-25T09:51:17;7.40;99.90
19152;DHT22;9708;53.114;9.388;2022-11-25T09:53:49;7.40;99.90
19152;DHT22;9708;53.114;9.388;2022-11-25T09:56:25;7.40;99.90
19152;DHT22;9708;53.114;9.388;2022-11-25T09:58:55;7.40;99.90
19152;DHT22;9708;53.114;9.388;2022-11-25T10:01:28;7.30;99.90
19152;DHT22;9708;53.114;9.388;2022-11-25T10:04:01;7.40;99.90
19152;DHT22;9708;53.114;9.388;2022-11-25T10:06:33;7.40;99.90
19152;DHT22;9708;53.114;9.388;2022-11-25T10:09:05;7.40;99.90
19152;DHT22;9708;53.114;9.388;2022-11-25T10:11:46;7.40;99.90
19152;DHT22;9708;53.114;9.388;2022-11-25T10:14:23;7.40;99.90
19152;DHT22;9708;53.114;9.388;2022-11-25T10:16:59;7.50;99.90
19152;DHT22;9708;53.114;9.388;2022-11-25T10:19:37;7.50;99.90
19152;DHT22;9708;53.114;9.388;2022-11-25T10:22:16;7.60;99.90
19152;DHT22;9708;53.114;9.388;2022-11-25T10:24:44;7.60;99.90
19152;DHT22;9708;53.114;9.388;2022-11-25T10:27:17;7.60;99.90
19152;DHT22;9708;53.114;9.388;2022-11-25T10:29:48;7.60;99.90
19152;DHT22;9708;53.114;9.388;2022-11-25T10:32:21;7.70;99.90
19152;DHT22;9708;53.114;9.388;2022-11-25T10:34:53;7.70;99.90
19152;DHT22;9708;53.114;9.388;2022-11-25T10:37:26;7.80;99.90
19152;DHT22;9708;53.114;9.388;2022-11-25T10:39:54;7.90;99.90
19152;DHT22;9708;53.114;9.388;2022-11-25T10:42:22;7.90;99.90
19152;DHT22;9708;53.114;9.388;2022-11-25T10:44:49;8.00;99.90
19152;DHT22;9708;53.114;9.388;2022-11-25T10:47:33;8.10;99.90
19152;DHT22;9708;53.114;9.388;2022-11-25T10:50:19;8.10;99.90
19152;DHT22;9708;53.114;9.388;2022-11-25T10:52:57;8.10;99.90
19152;DHT22;9708;53.114;9.388;2022-11-25T10:55:28;8.20;99.90
19152;DHT22;9708;53.114;9.388;2022-11-25T10:57:56;8.10;99.90
19152;DHT22;9708;53.114;9.388;2022-11-25T11:00:27;8.20;99.90
19152;DHT22;9708;53.114;9.388;2022-11-25T11:02:55;8.20;99.90
19152;DHT22;9708;53.114;9.388;2022-11-25T11:05:26;8.20;99.90
19152;DHT22;9708;53.114;9.388;2022-11-25T11:08:12;8.30;99.90
19152;DHT22;9708;53.114;9.388;2022-11-25T11:10:40;8.30;99.90
19152;DHT22;9708;53.114;9.388;2022-11-25T11:13:20;8.20;99.90
19152;DHT22;9708;53.114;9.388;2022-11-25T11:15:48;8.20;99.90
19152;DHT22;9708;53.114;9.388;2022-11-25T11:18:23;8.20;99.90
19152;DHT22;9708;53.114;9.388;2022-11-25T11:20:53;8.20;99.90
19152;DHT22;9708;53.114;9.388;2022-11-25T11:23:20;8.30;99.90
19152;DHT22;9708;53.114;9.388;2022-11-25T11:25:58;8.30;99.90
19152;DHT22;9708;53.114;9.388;2022-11-25T11:28:28;8.20;99.90
19152;DHT22;9708;53.114;9.388;2022-11-25T11:31:00;8.30;99.90
19152;DHT22;9708;53.114;9.388;2022-11-25T11:33:34;8.30;99.90
19152;DHT22;9708;53.114;9.388;2022-11-25T11:36:10;8.30;99.90
19152;DHT22;9708;53.114;9.388;2022-11-25T11:38:49;8.40;99.90
19152;DHT22;9708;53.114;9.388;2022-11-25T11:41:26;8.50;99.90
19152;DHT22;9708;53.114;9.388;2022-11-25T11:44:05;8.50;99.90
19152;DHT22;9708;53.114;9.388;2022-11-25T11:46:45;8.40;99.90
19152;DHT22;9708;53.114;9.388;2022-11-25T11:49:29;8.40;99.90
19152;DHT22;9708;53.114;9.388;2022-11-25T11:52:05;8.40;99.90
19152;DHT22;9708;53.114;9.388;2022-11-25T11:54:37;8.30;99.90
19152;DHT22;9708;53.114;9.388;2022-11-25T11:57:13;8.30;99.90
19152;DHT22;9708;53.114;9.388;2022-11-25T11:59:46;8.40;99.90
19152;DHT22;9708;53.114;9.388;2022-11-25T12:02:30;8.40;99.90
19152;DHT22;9708;53.114;9.388;2022-11-25T12:05:05;8.40;99.90
19152;DHT22;9708;53.114;9.388;2022-11-25T12:07:44;8.40;99.90
19152;DHT22;9708;53.114;9.388;2022-11-25T12:10:21;8.50;99.90
19152;DHT22;9708;53.114;9.388;2022-11-25T12:12:52;8.40;99.90
19152;DHT22;9708;53.114;9.388;2022-11-25T12:15:32;8.40;99.90
19152;DHT22;9708;53.114;9.388;2022-11-25T12:18:03;8.50;99.90
19152;DHT22;9708;53.114;9.388;2022-11-25T12:20:39;8.50;99.90
19152;DHT22;9708;53.114;9.388;2022-11-25T12:23:14;8.50;99.90
19152;DHT22;9708;53.114;9.388;2022-11-25T12:25:43;8.50;99.90
19152;DHT22;9708;53.114;9.388;2022-11-25T12:28:15;8.60;99.90
19152;DHT22;9708;53.114;9.388;2022-11-25T12:30:49;8.70;99.90
19152;DHT22;9708;53.114;9.388;2022-11-25T12:33:28;8.80;99.90
19152;DHT22;9708;53.114;9.388;2022-11-25T12:36:01;9.00;99.90
19152;DHT22;9708;53.114;9.388;2022-11-25T12:38:36;9.10;99.90
19152;DHT22;9708;53.114;9.388;2022-11-25T12:41:13;9.30;99.90
19152;DHT22;9708;53.114;9.388;2022-11-25T12:43:45;9.40;99.90
19152;DHT22;9708;53.114;9.388;2022-11-25T12:46:21;9.50;99.90
19152;DHT22;9708;53.114;9.388;2022-11-25T12:48:51;9.60;99.90
19152;DHT22;9708;53.114;9.388;2022-11-25T12:51:29;9.60;99.90
19152;DHT22;9708;53.114;9.388;2022-11-25T12:54:07;9.40;99.90
19152;DHT22;9708;53.114;9.388;2022-11-25T12:56:51;9.40;99.90
19152;DHT22;9708;53.114;9.388;2022-11-25T12:59:43;9.40;99.90
19152;DHT22;9708;53.114;9.388;2022-11-25T13:02:34;9.50;99.90
19152;DHT22;9708;53.114;9.388;2022-11-25T13:08:14;9.40;99.90
19152;DHT22;9708;53.114;9.388;2022-11-25T13:11:06;9.60;99.90
19152;DHT22;9708;53.114;9.388;2022-11-25T13:13:45;9.70;99.90
19152;DHT22;9708;53.114;9.388;2022-11-25T13:16:13;9.80;99.90
19152;DHT22;9708;53.114;9.388;2022-11-25T13:18:42;9.80;99.90
19152;DHT22;9708;53.114;9.388;2022-11-25T13:21:10;9.90;99.90
19152;DHT22;9708;53.114;9.388;2022-11-25T13:23:48;9.90;99.90
19152;DHT22;9708;53.114;9.388;2022-11-25T13:32:32;9.90;99.90
19152;DHT22;9708;53.114;9.388;2022-11-25T13:37:59;9.70;99.90
19152;DHT22;9708;53.114;9.388;2022-11-25T13:40:36;9.60;99.90
19152;DHT22;9708;53.114;9.388;2022-11-25T13:43:04;9.60;99.90
19152;DHT22;9708;53.114;9.388;2022-11-25T13:45:32;9.70;99.90
19152;DHT22;9708;53.114;9.388;2022-11-25T13:48:06;9.70;99.90
19152;DHT22;9708;53.114;9.388;2022-11-25T13:50:38;9.70;99.90
19152;DHT22;9708;53.114;9.388;2022-11-25T13:53:16;9.60;99.90
19152;DHT22;9708;53.114;9.388;2022-11-25T13:55:44;9.60;99.90
19152;DHT22;9708;53.114;9.388;2022-11-25T13:58:19;9.60;99.90
19152;DHT22;9708;53.114;9.388;2022-11-25T14:00:49;9.60;99.90
19152;DHT22;9708;53.114;9.388;2022-11-25T14:03:46;9.60;99.90
19152;DHT22;9708;53.114;9.388;2022-11-25T14:06:24;9.60;99.90
19152;DHT22;9708;53.114;9.388;2022-11-25T14:08:57;9.50;99.90
19152;DHT22;9708;53.114;9.388;2022-11-25T14:11:39;9.60;99.90
19152;DHT22;9708;53.114;9.388;2022-11-25T14:14:29;9.50;99.90
19152;DHT22;9708;53.114;9.388;2022-11-25T14:17:13;9.60;99.90
19152;DHT22;9708;53.114;9.388;2022-11-25T14:20:01;9.50;99.90
19152;DHT22;9708;53.114;9.388;2022-11-25T14:25:23;9.50;99.90
19152;DHT22;9708;53.114;9.388;2022-11-25T14:27:57;9.40;99.90
19152;DHT22;9708;53.114;9.388;2022-11-25T14:30:25;9.30;99.90
19152;DHT22;9708;53.114;9.388;2022-11-25T14:32:55;9.20;99.90
19152;DHT22;9708;53.114;9.388;2022-11-25T14:35:27;9.20;99.90
19152;DHT22;9708;53.114;9.388;2022-11-25T14:37:59;9.20;99.90
19152;DHT22;9708;53.114;9.388;2022-11-25T14:40:29;9.10;99.90
19152;DHT22;9708;53.114;9.388;2022-11-25T14:43:02;9.00;99.90
19152;DHT22;9708;53.114;9.388;2022-11-25T14:45:31;8.90;99.90
19152;DHT22;9708;53.114;9.388;2022-11-25T14:48:11;8.90;99.90
19152;DHT22;9708;53.114;9.388;2022-11-25T14:50:40;8.80;99.90
19152;DHT22;9708;53.114;9.388;2022-11-25T14:53:08;8.70;99.90
19152;DHT22;9708;53.114;9.388;2022-11-25T14:55:35;8.70;99.90
19152;DHT22;9708;53.114;9.388;2022-11-25T14:58:03;8.60;99.90
19152;DHT22;9708;53.114;9.388;2022-11-25T15:00:30;8.50;99.90
19152;DHT22;9708;53.114;9.388;2022-11-25T15:02:58;8.50;99.90
19152;DHT22;9708;53.114;9.388;2022-11-25T15:05:29;8.40;99.90
19152;DHT22;9708;53.114;9.388;2022-11-25T15:08:00;8.50;99.90
19152;DHT22;9708;53.114;9.388;2022-11-25T15:10:38;8.40;99.90
19152;DHT22;9708;53.114;9.388;2022-11-25T15:13:13;8.20;99.90
19152;DHT22;9708;53.114;9.388;2022-11-25T15:15:46;8.10;99.90
19152;DHT22;9708;53.114;9.388;2022-11-25T15:18:17;8.00;99.90
19152;DHT22;9708;53.114;9.388;2022-11-25T15:20:47;8.00;99.90
19152;DHT22;9708;53.114;9.388;2022-11-25T15:23:19;7.90;99.90
19152;DHT22;9708;53.114;9.388;2022-11-25T15:25:50;8.00;99.90
19152;DHT22;9708;53.114;9.388;2022-11-25T15:28:17;8.00;99.90
19152;DHT22;9708;53.114;9.388;2022-11-25T15:30:55;8.00;99.90
19152;DHT22;9708;53.114;9.388;2022-11-25T15:33:22;8.10;99.90
19152;DHT22;9708;53.114;9.388;2022-11-25T15:35:50;8.20;99.90
19152;DHT22;9708;53.114;9.388;2022-11-25T15:38:30;8.30;99.90
19152;DHT22;9708;53.114;9.388;2022-11-25T15:40:59;8.40;99.90
19152;DHT22;9708;53.114;9.388;2022-11-25T15:43:28;8.40;99.90
19152;DHT22;9708;53.114;9.388;2022-11-25T15:45:59;8.40;99.90
19152;DHT22;9708;53.114;9.388;2022-11-25T15:48:29;8.40;99.90
19152;DHT22;9708;53.114;9.388;2022-11-25T15:51:00;8.30;99.90
19152;DHT22;9708;53.114;9.388;2022-11-25T15:53:31;8.20;99.90
19152;DHT22;9708;53.114;9.388;2022-11-25T15:56:02;8.20;99.90
19152;DHT22;9708;53.114;9.388;2022-11-25T15:58:31;8.20;99.90
19152;DHT22;9708;53.114;9.388;2022-11-25T16:01:02;8.20;99.90
19152;DHT22;9708;53.114;9.388;2022-11-25T16:03:29;8.10;99.90
19152;DHT22;9708;53.114;9.388;2022-11-25T16:05:58;8.00;99.90
19152;DHT22;9708;53.114;9.388;2022-11-25T16:08:31;8.10;99.90
19152;DHT22;9708;53.114;9.388;2022-11-25T16:11:09;8.10;99.90
19152;DHT22;9708;53.114;9.388;2022-11-25T16:13:37;8.00;99.90
19152;DHT22;9708;53.114;9.388;2022-11-25T16:16:18;8.00;99.90
19152;DHT22;9708;53.114;9.388;2022-11-25T16:21:49;8.00;99.90
19152;DHT22;9708;53.114;9.388;2022-11-25T16:24:31;8.00;99.90
19152;DHT22;9708;53.114;9.388;2022-11-25T16:27:00;7.90;99.90
19152;DHT22;9708;53.114;9.388;2022-11-25T16:29:30;7.90;99.90
19152;DHT22;9708;53.114;9.388;2022-11-25T16:31:57;7.90;99.90
19152;DHT22;9708;53.114;9.388;2022-11-25T16:34:24;7.80;99.90
19152;DHT22;9708;53.114;9.388;2022-11-25T16:36:51;7.80;99.90
19152;DHT22;9708;53.114;9.388;2022-11-25T16:39:18;7.70;99.90
19152;DHT22;9708;53.114;9.388;2022-11-25T16:41:55;7.60;99.90